Time;durP1;ratioP1;P1;durP2;ratioP2;P2;SDS_P1;SDS_P2;PMS_P1;PMS_P2;Temp;Humidity;BMP_temperature;BMP_pressure;BME280_temperature;BME280_humidity;BME280_pressure;Samples;Min_cycle;Max_cycle;Signal;HPM_P1;HPM_P2
2022/09/18 00:02:00;;;;;;;6.38;1.35;;;;;;;;;;5094309;28;20233;-16
2022/09/18 00:04:27;;;;;;;5.43;1.30;;;;;;;;;;5093479;28;20785;-16
2022/09/18 00:06:55;;;;;;;4.75;1.80;;;;;;;;;;5093227;28;20287;-15
2022/09/18 00:09:22;;;;;;;5.93;1.30;;;;;;;;;;5093740;28;20270;-15
2022/09/18 00:11:51;;;;;;;7.75;1.67;;;;;;;;;;5093684;28;20335;-15
2022/09/18 00:14:19;;;;;;;4.60;1.40;;;;;;;;;;5093723;28;20240;-16
2022/09/18 00:16:46;;;;;;;5.03;1.50;;;;;;;;;;5092939;28;20732;-16
2022/09/18 00:19:13;;;;;;;4.38;1.52;;;;;;;;;;5093645;28;20278;-16
2022/09/18 00:21:41;;;;;;;4.88;1.50;;;;;;;;;;5093761;28;20285;-16
2022/09/18 00:24:08;;;;;;;3.80;1.35;;;;;;;;;;5093613;28;20232;-16
2022/09/18 00:26:36;;;;;;;4.47;1.42;;;;;;;;;;5093804;28;20229;-16
2022/09/18 00:29:04;;;;;;;4.80;1.40;;;;;;;;;;5092082;28;20679;-16
2022/09/18 00:31:32;;;;;;;7.38;2.35;;;;;;;;;;5093592;28;20282;-15
2022/09/18 00:34:00;;;;;;;5.05;1.30;;;;;;;;;;5093403;28;20232;-15
2022/09/18 00:36:28;;;;;;;3.70;1.27;;;;;;;;;;5093166;28;20680;-15
2022/09/18 00:38:56;;;;;;;5.13;1.60;;;;;;;;;;5092407;28;20711;-15
2022/09/18 00:41:23;;;;;;;4.13;1.48;;;;;;;;;;5093273;28;20225;-16
2022/09/18 00:43:51;;;;;;;5.32;1.63;;;;;;;;;;5093227;28;20300;-16
2022/09/18 00:46:21;;;;;;;5.20;1.20;;;;;;;;;;5093108;28;20232;-16
2022/09/18 00:48:49;;;;;;;7.32;1.65;;;;;;;;;;5092787;28;20699;-15
2022/09/18 00:51:16;;;;;;;5.50;1.48;;;;;;;;;;5074779;28;20238;-16
2022/09/18 00:53:44;;;;;;;7.38;1.85;;;;;;;;;;5072150;28;20712;-15
2022/09/18 00:56:12;;;;;;;3.90;1.50;;;;;;;;;;5072960;28;20935;-16
2022/09/18 00:58:39;;;;;;;4.13;1.60;;;;;;;;;;5072806;28;20229;-15
2022/09/18 01:01:07;;;;;;;5.22;1.42;;;;;;;;;;5088696;28;20236;-16
2022/09/18 01:03:36;;;;;;;5.78;1.80;;;;;;;;;;5113684;28;20224;-16
2022/09/18 01:06:06;;;;;;;7.18;1.50;;;;;;;;;;5113321;28;20278;-15
2022/09/18 01:08:36;;;;;;;5.53;1.60;;;;;;;;;;5113714;28;20232;-15
2022/09/18 01:11:13;;;;;;;6.47;1.63;;;;;;;;;;5111728;28;20228;-15
2022/09/18 01:13:42;;;;;;;4.55;1.80;;;;;;;;;;5092997;28;20229;-16
2022/09/18 01:16:10;;;;;;;4.70;1.70;;;;;;;;;;5082691;28;21071;-16
2022/09/18 01:18:42;;;;;;;4.97;1.60;;;;;;;;;;5091363;28;20266;-15
2022/09/18 01:21:09;;;;;;;4.80;1.52;;;;;;;;;;5090628;28;20236;-16
2022/09/18 01:23:42;;;;;;;9.30;2.00;;;;;;;;;;5083424;28;20315;-16
2022/09/18 01:26:14;;;;;;;7.00;1.73;;;;;;;;;;5090783;28;20310;-16
2022/09/18 01:28:43;;;;;;;7.25;1.70;;;;;;;;;;5104842;28;20290;-16
2022/09/18 01:31:12;;;;;;;6.82;2.00;;;;;;;;;;5098249;28;21082;-15
2022/09/18 01:33:40;;;;;;;6.45;1.98;;;;;;;;;;5092724;28;20295;-16
2022/09/18 01:36:08;;;;;;;5.60;1.75;;;;;;;;;;5092646;28;20259;-15
2022/09/18 01:38:36;;;;;;;7.70;2.00;;;;;;;;;;5091772;28;20773;-16
2022/09/18 01:41:05;;;;;;;8.55;1.90;;;;;;;;;;5092538;28;20579;-15
2022/09/18 01:43:32;;;;;;;5.72;2.40;;;;;;;;;;5092045;28;20225;-16
2022/09/18 01:46:02;;;;;;;5.50;1.55;;;;;;;;;;5091230;28;20237;-16
2022/09/18 01:48:30;;;;;;;9.52;1.88;;;;;;;;;;5071888;28;20233;-16
2022/09/18 01:50:59;;;;;;;8.05;1.73;;;;;;;;;;5086710;28;20225;-15
2022/09/18 01:53:29;;;;;;;4.57;1.42;;;;;;;;;;5092693;28;20228;-16
2022/09/18 01:55:57;;;;;;;7.95;2.05;;;;;;;;;;5091892;28;20228;-15
2022/09/18 01:58:24;;;;;;;6.95;1.83;;;;;;;;;;5092222;28;20323;-15
2022/09/18 02:00:53;;;;;;;5.95;1.55;;;;;;;;;;5090674;28;20290;-15
2022/09/18 02:03:22;;;;;;;7.90;1.73;;;;;;;;;;5092089;28;20225;-15
2022/09/18 02:05:50;;;;;;;6.70;1.67;;;;;;;;;;5092059;28;20233;-16
2022/09/18 02:08:19;;;;;;;7.82;2.17;;;;;;;;;;5091217;28;20284;-16
2022/09/18 02:10:47;;;;;;;7.15;1.55;;;;;;;;;;5091764;28;21031;-15
2022/09/18 02:13:15;;;;;;;6.25;1.73;;;;;;;;;;5091375;28;20265;-16
2022/09/18 02:15:42;;;;;;;8.18;1.70;;;;;;;;;;5090665;28;20221;-16
2022/09/18 02:18:10;;;;;;;6.85;1.50;;;;;;;;;;5071547;28;20225;-16
2022/09/18 02:20:39;;;;;;;5.25;1.30;;;;;;;;;;5071456;28;20237;-16
2022/09/18 02:23:07;;;;;;;6.85;1.70;;;;;;;;;;5117691;22;20252;-13
2022/09/18 02:25:35;;;;;;;5.97;1.50;;;;;;;;;;5096418;28;20240;-14
2022/09/18 02:28:02;;;;;;;9.07;1.38;;;;;;;;;;5112556;28;20231;-13
2022/09/18 02:30:29;;;;;;;5.85;1.70;;;;;;;;;;5112025;28;20246;-14
2022/09/18 02:32:57;;;;;;;6.35;1.58;;;;;;;;;;5112629;28;20224;-14
2022/09/18 02:35:26;;;;;;;7.57;1.48;;;;;;;;;;5112389;28;20991;-13
2022/09/18 02:37:57;;;;;;;3.88;1.45;;;;;;;;;;5112614;28;20232;-14
2022/09/18 02:40:27;;;;;;;5.85;1.63;;;;;;;;;;5112155;28;20236;-13
2022/09/18 02:42:58;;;;;;;7.00;1.60;;;;;;;;;;5112306;28;20231;-14
2022/09/18 02:45:26;;;;;;;7.57;1.63;;;;;;;;;;5108247;27;21047;-14
2022/09/18 02:48:15;;;;;;;6.63;1.42;;;;;;;;;;5091929;28;20233;-14
2022/09/18 02:50:44;;;;;;;6.10;1.60;;;;;;;;;;5086913;28;20263;-14
2022/09/18 02:53:15;;;;;;;5.68;1.50;;;;;;;;;;5112323;28;20228;-14
2022/09/18 02:55:44;;;;;;;9.73;1.58;;;;;;;;;;5110155;28;20677;-14
2022/09/18 02:58:12;;;;;;;7.97;1.90;;;;;;;;;;5091456;28;20221;-13
2022/09/18 03:00:44;;;;;;;4.40;1.20;;;;;;;;;;5096562;28;20601;-14
2022/09/18 03:03:13;;;;;;;6.30;1.30;;;;;;;;;;5111229;28;20220;-14
2022/09/18 03:05:42;;;;;;;10.95;1.80;;;;;;;;;;5111886;28;20240;-14
2022/09/18 03:08:09;;;;;;;8.15;1.65;;;;;;;;;;5110876;28;20228;-13
2022/09/18 03:10:38;;;;;;;8.43;2.00;;;;;;;;;;5111586;28;20274;-13
2022/09/18 03:13:05;;;;;;;5.45;1.50;;;;;;;;;;5110753;28;20320;-13
2022/09/18 03:15:33;;;;;;;6.40;1.50;;;;;;;;;;5107586;28;20385;-14
2022/09/18 03:18:00;;;;;;;2.85;1.10;;;;;;;;;;5108327;28;20224;-14
2022/09/18 03:20:27;;;;;;;8.63;1.60;;;;;;;;;;5111953;28;20748;-14
2022/09/18 03:22:55;;;;;;;4.43;1.40;;;;;;;;;;5110126;28;20255;-14
2022/09/18 03:25:22;;;;;;;4.47;1.60;;;;;;;;;;5111273;28;20783;-14
2022/09/18 03:27:55;;;;;;;5.38;1.33;;;;;;;;;;5111387;28;20227;-14
2022/09/18 03:30:23;;;;;;;7.65;1.55;;;;;;;;;;5089435;28;20283;-13
2022/09/18 03:32:50;;;;;;;5.70;1.00;;;;;;;;;;5070744;28;20241;-14
2022/09/18 03:35:18;;;;;;;5.55;1.00;;;;;;;;;;5070674;28;20275;-14
2022/09/18 03:37:45;;;;;;;4.93;1.35;;;;;;;;;;5070773;28;20338;-14
2022/09/18 03:40:12;;;;;;;6.50;1.55;;;;;;;;;;5079441;28;20271;-14
2022/09/18 03:42:40;;;;;;;4.30;1.10;;;;;;;;;;5091327;28;20290;-14
2022/09/18 03:45:09;;;;;;;4.10;1.13;;;;;;;;;;5090948;28;20291;-14
2022/09/18 03:47:36;;;;;;;3.95;1.13;;;;;;;;;;5105923;28;21041;-14
2022/09/18 03:50:05;;;;;;;5.40;1.40;;;;;;;;;;5111359;28;20221;-13
2022/09/18 03:52:32;;;;;;;4.57;1.35;;;;;;;;;;5090250;28;20302;-14
2022/09/18 03:54:59;;;;;;;6.43;1.33;;;;;;;;;;5090816;28;20311;-14
2022/09/18 03:57:26;;;;;;;4.45;1.13;;;;;;;;;;5090912;28;20221;-14
2022/09/18 03:59:54;;;;;;;7.13;1.55;;;;;;;;;;5090903;28;20700;-14
2022/09/18 04:02:22;;;;;;;6.97;1.42;;;;;;;;;;5089938;28;20268;-14
2022/09/18 04:04:50;;;;;;;5.93;1.40;;;;;;;;;;5091196;28;20267;-14
2022/09/18 04:07:18;;;;;;;6.90;1.35;;;;;;;;;;5090777;28;20790;-14
2022/09/18 04:09:45;;;;;;;4.00;0.90;;;;;;;;;;5090888;28;20209;-13
2022/09/18 04:12:12;;;;;;;8.10;1.60;;;;;;;;;;5089053;28;20656;-13
2022/09/18 04:14:40;;;;;;;7.18;1.65;;;;;;;;;;5090573;28;20235;-13
2022/09/18 04:17:07;;;;;;;5.93;1.70;;;;;;;;;;5086953;28;20318;-14
2022/09/18 04:19:36;;;;;;;6.43;1.02;;;;;;;;;;5090397;28;20279;-13
2022/09/18 04:22:03;;;;;;;5.15;1.33;;;;;;;;;;5090199;28;20708;-14
2022/09/18 04:24:30;;;;;;;5.53;1.10;;;;;;;;;;5093306;28;20229;-14
2022/09/18 04:26:58;;;;;;;3.08;1.20;;;;;;;;;;5094199;28;20278;-14
2022/09/18 04:29:25;;;;;;;4.43;1.20;;;;;;;;;;5093847;28;20699;-14
2022/09/18 04:31:52;;;;;;;5.28;1.30;;;;;;;;;;5093737;28;20282;-14
2022/09/18 04:34:20;;;;;;;5.68;1.40;;;;;;;;;;5092984;28;20232;-14
2022/09/18 04:36:48;;;;;;;8.07;1.38;;;;;;;;;;5093153;28;21032;-14
2022/09/18 04:39:16;;;;;;;5.38;1.40;;;;;;;;;;5093970;28;20232;-14
2022/09/18 04:41:44;;;;;;;6.05;1.27;;;;;;;;;;5093335;28;20295;-13
2022/09/18 04:44:11;;;;;;;5.68;1.45;;;;;;;;;;5093549;28;20221;-13
2022/09/18 04:46:39;;;;;;;5.55;1.17;;;;;;;;;;5093319;28;20233;-14
2022/09/18 04:49:06;;;;;;;5.68;1.30;;;;;;;;;;5093404;28;20228;-14
2022/09/18 04:51:33;;;;;;;4.15;1.02;;;;;;;;;;5093880;28;20267;-14
2022/09/18 04:54:02;;;;;;;3.95;1.38;;;;;;;;;;5093725;28;20286;-14
2022/09/18 04:56:29;;;;;;;5.40;1.38;;;;;;;;;;5093212;28;21006;-14
2022/09/18 04:58:58;;;;;;;7.82;1.40;;;;;;;;;;5093340;28;20244;-14
2022/09/18 05:01:26;;;;;;;3.90;1.17;;;;;;;;;;5081375;28;20319;-14
2022/09/18 05:03:53;;;;;;;8.23;1.45;;;;;;;;;;5073160;28;20284;-13
2022/09/18 05:06:20;;;;;;;7.32;1.42;;;;;;;;;;5073317;28;20233;-13
2022/09/18 05:08:48;;;;;;;4.63;1.33;;;;;;;;;;5087103;28;21021;-13
2022/09/18 05:11:16;;;;;;;5.38;1.35;;;;;;;;;;5093316;28;20229;-13
2022/09/18 05:13:43;;;;;;;4.88;1.38;;;;;;;;;;5072467;28;20229;-14
2022/09/18 05:16:11;;;;;;;3.38;1.20;;;;;;;;;;5098672;28;20935;-14
2022/09/18 05:18:39;;;;;;;9.20;1.42;;;;;;;;;;5091961;28;20686;-14
2022/09/18 05:21:06;;;;;;;2.33;0.90;;;;;;;;;;5092334;28;20282;-14
2022/09/18 05:23:33;;;;;;;6.97;1.55;;;;;;;;;;5093011;28;20237;-14
2022/09/18 05:26:01;;;;;;;3.95;0.98;;;;;;;;;;5092707;28;20232;-14
2022/09/18 05:28:29;;;;;;;8.02;1.70;;;;;;;;;;5089668;28;20236;-14
2022/09/18 05:30:57;;;;;;;4.38;1.00;;;;;;;;;;5083112;28;20225;-13
2022/09/18 05:33:25;;;;;;;3.53;1.00;;;;;;;;;;5083378;28;20328;-13
2022/09/18 05:35:53;;;;;;;6.03;1.42;;;;;;;;;;5080315;28;21054;-13
2022/09/18 05:38:20;;;;;;;8.80;1.35;;;;;;;;;;5082458;28;20241;-13
2022/09/18 05:40:48;;;;;;;4.50;0.95;;;;;;;;;;5082438;28;20282;-14
2022/09/18 05:43:15;;;;;;;5.85;1.08;;;;;;;;;;5081215;28;20238;-13
2022/09/18 05:45:44;;;;;;;4.28;1.15;;;;;;;;;;5084971;28;20229;-14
2022/09/18 05:48:12;;;;;;;4.25;1.00;;;;;;;;;;5086099;28;20758;-13
2022/09/18 05:50:41;;;;;;;4.47;1.08;;;;;;;;;;5080021;28;20225;-14
2022/09/18 05:53:09;;;;;;;2.63;0.73;;;;;;;;;;5082671;28;20233;-14
2022/09/18 05:55:37;;;;;;;5.32;0.82;;;;;;;;;;5072192;28;20214;-14
2022/09/18 05:58:04;;;;;;;4.22;0.77;;;;;;;;;;5072288;28;20229;-14
2022/09/18 06:00:32;;;;;;;5.70;1.00;;;;;;;;;;5075917;28;20333;-14
2022/09/18 06:03:01;;;;;;;3.58;1.02;;;;;;;;;;5091583;28;20232;-14
2022/09/18 06:05:29;;;;;;;6.30;1.00;;;;;;;;;;5092408;28;20233;-14
2022/09/18 06:07:56;;;;;;;8.32;1.25;;;;;;;;;;5092643;28;20228;-13
2022/09/18 06:10:26;;;;;;;3.53;0.70;;;;;;;;;;5092022;28;20229;-14
2022/09/18 06:12:59;;;;;;;5.53;0.80;;;;;;;;;;5092676;28;20228;-14
2022/09/18 06:15:26;;;;;;;3.78;1.00;;;;;;;;;;5098091;28;20283;-14
2022/09/18 06:17:54;;;;;;;7.22;1.17;;;;;;;;;;5071845;28;20303;-14
2022/09/18 06:20:22;;;;;;;6.03;1.17;;;;;;;;;;5071812;28;20279;-14
2022/09/18 06:22:50;;;;;;;8.48;1.23;;;;;;;;;;5071118;28;20249;-14
2022/09/18 06:25:20;;;;;;;4.80;1.20;;;;;;;;;;5080988;28;20228;-14
2022/09/18 06:27:49;;;;;;;7.25;0.93;;;;;;;;;;5092251;28;20236;-14
2022/09/18 06:30:16;;;;;;;3.25;1.08;;;;;;;;;;5091764;28;20221;-14
2022/09/18 06:32:43;;;;;;;8.63;1.15;;;;;;;;;;5091726;28;20879;-14
2022/09/18 06:35:11;;;;;;;7.70;1.25;;;;;;;;;;5091104;28;20228;-14
2022/09/18 06:37:40;;;;;;;3.42;1.10;;;;;;;;;;5091875;28;20228;-14
2022/09/18 06:40:07;;;;;;;5.40;0.90;;;;;;;;;;5090723;28;20232;-14
2022/09/18 06:42:35;;;;;;;5.15;1.08;;;;;;;;;;5085142;28;20328;-13
2022/09/18 06:45:02;;;;;;;4.35;0.77;;;;;;;;;;5089573;28;21114;-13
2022/09/18 06:47:29;;;;;;;6.15;1.00;;;;;;;;;;5082221;28;20343;-14
2022/09/18 06:49:57;;;;;;;4.70;0.80;;;;;;;;;;5090660;28;20228;-13
2022/09/18 06:52:24;;;;;;;4.07;1.02;;;;;;;;;;5092154;28;20332;-14
2022/09/18 06:54:53;;;;;;;6.00;1.10;;;;;;;;;;5080921;28;20229;-14
2022/09/18 06:57:20;;;;;;;11.80;1.25;;;;;;;;;;5072671;28;20700;-14
2022/09/18 06:59:47;;;;;;;2.72;0.95;;;;;;;;;;5090772;28;20278;-14
2022/09/18 07:02:15;;;;;;;9.82;1.15;;;;;;;;;;5090246;28;20294;-14
2022/09/18 07:04:46;;;;;;;6.40;1.10;;;;;;;;;;5090096;28;20788;-14
2022/09/18 07:07:13;;;;;;;4.38;1.00;;;;;;;;;;5090975;28;20236;-14
2022/09/18 07:09:41;;;;;;;2.97;0.70;;;;;;;;;;5090065;28;20236;-14
2022/09/18 07:12:09;;;;;;;11.95;1.38;;;;;;;;;;5091034;28;20233;-14
2022/09/18 07:14:37;;;;;;;38.40;1.73;;;;;;;;;;5088495;28;20286;-14
2022/09/18 07:17:07;;;;;;;6.18;1.10;;;;;;;;;;5090876;28;21021;-14
2022/09/18 07:19:35;;;;;;;7.80;1.02;;;;;;;;;;5091311;28;20233;-14
2022/09/18 07:22:02;;;;;;;9.43;1.02;;;;;;;;;;5090713;28;20244;-14
2022/09/18 07:24:29;;;;;;;3.13;0.82;;;;;;;;;;5090054;28;20774;-14
2022/09/18 07:26:57;;;;;;;7.00;0.75;;;;;;;;;;5090212;28;20224;-14
2022/09/18 07:29:26;;;;;;;6.32;1.10;;;;;;;;;;5089807;28;20221;-14
2022/09/18 07:31:53;;;;;;;15.38;1.50;;;;;;;;;;5079605;28;20334;-14
2022/09/18 07:34:20;;;;;;;13.95;1.52;;;;;;;;;;5081854;28;20278;-14
2022/09/18 07:36:49;;;;;;;13.45;1.88;;;;;;;;;;5089542;28;21001;-14
2022/09/18 07:39:16;;;;;;;7.72;1.42;;;;;;;;;;5089010;28;20419;-14
2022/09/18 07:41:43;;;;;;;10.38;1.50;;;;;;;;;;5088069;28;20481;-14
2022/09/18 07:44:11;;;;;;;10.00;1.10;;;;;;;;;;5089570;28;20240;-14
2022/09/18 07:46:40;;;;;;;6.20;1.27;;;;;;;;;;5076647;28;20264;-14
2022/09/18 07:49:07;;;;;;;5.80;1.27;;;;;;;;;;5069015;28;21040;-14
2022/09/18 07:51:34;;;;;;;9.80;1.15;;;;;;;;;;5092824;28;20236;-14
2022/09/18 07:54:02;;;;;;;9.82;1.10;;;;;;;;;;5091419;28;20228;-14
2022/09/18 07:56:29;;;;;;;7.80;1.20;;;;;;;;;;5089599;28;20221;-14
2022/09/18 07:58:56;;;;;;;6.10;1.30;;;;;;;;;;5091544;28;20217;-14
2022/09/18 08:01:24;;;;;;;2.42;0.90;;;;;;;;;;5102539;28;20279;-14
2022/09/18 08:03:53;;;;;;;7.68;1.00;;;;;;;;;;5106533;28;20677;-14
2022/09/18 08:06:20;;;;;;;6.30;1.10;;;;;;;;;;5092812;28;20975;-14
2022/09/18 08:08:48;;;;;;;6.38;1.17;;;;;;;;;;5092777;28;20623;-14
2022/09/18 08:11:21;;;;;;;5.13;1.10;;;;;;;;;;5092992;28;20263;-14
2022/09/18 08:13:48;;;;;;;2.40;0.70;;;;;;;;;;5093250;28;21018;-13
2022/09/18 08:16:16;;;;;;;6.75;1.52;;;;;;;;;;5082497;28;20696;-14
2022/09/18 08:18:43;;;;;;;3.65;1.13;;;;;;;;;;5072362;28;20317;-13
2022/09/18 08:21:12;;;;;;;2.95;0.80;;;;;;;;;;5082505;28;20753;-14
2022/09/18 08:23:39;;;;;;;4.57;0.90;;;;;;;;;;5056901;28;1047206;-14
2022/09/18 08:26:06;;;;;;;6.65;1.20;;;;;;;;;;5093286;28;20754;-14
2022/09/18 08:28:34;;;;;;;3.67;0.85;;;;;;;;;;5094011;28;20229;-14
2022/09/18 08:31:01;;;;;;;4.50;0.80;;;;;;;;;;5093745;28;20688;-14
2022/09/18 08:33:29;;;;;;;3.60;0.70;;;;;;;;;;5093869;28;20224;-14
2022/09/18 08:35:57;;;;;;;2.92;0.90;;;;;;;;;;5093999;28;20275;-14
2022/09/18 08:38:25;;;;;;;2.42;0.85;;;;;;;;;;5093463;28;20294;-14
2022/09/18 08:40:59;;;;;;;3.85;0.70;;;;;;;;;;5094009;28;20662;-13
2022/09/18 08:43:34;;;;;;;5.05;0.90;;;;;;;;;;5093009;28;20221;-13
2022/09/18 08:46:02;;;;;;;3.30;0.80;;;;;;;;;;5093759;28;20286;-13
2022/09/18 08:48:30;;;;;;;5.07;0.82;;;;;;;;;;5093148;28;20707;-14
2022/09/18 08:51:00;;;;;;;2.63;0.73;;;;;;;;;;5093872;28;21085;-14
2022/09/18 08:53:30;;;;;;;3.95;0.82;;;;;;;;;;5093415;28;20221;-14
2022/09/18 08:55:57;;;;;;;3.60;0.82;;;;;;;;;;5093485;28;20221;-14
2022/09/18 08:58:25;;;;;;;3.20;0.77;;;;;;;;;;5093049;28;20306;-14
2022/09/18 09:00:53;;;;;;;2.80;0.82;;;;;;;;;;5086294;28;20229;-14
2022/09/18 09:03:23;;;;;;;2.45;0.88;;;;;;;;;;5073273;28;20939;-14
2022/09/18 09:05:51;;;;;;;3.85;0.82;;;;;;;;;;5073008;28;20302;-13
2022/09/18 09:08:36;;;;;;;2.08;0.65;;;;;;;;;;5072618;28;20230;-14
2022/09/18 09:11:05;;;;;;;2.97;0.70;;;;;;;;;;5089471;28;20232;-14
2022/09/18 09:13:41;;;;;;;4.07;0.65;;;;;;;;;;5093086;28;20224;-13
2022/09/18 09:16:09;;;;;;;2.63;0.70;;;;;;;;;;5084431;28;20568;-14
2022/09/18 09:18:37;;;;;;;3.00;0.68;;;;;;;;;;5072987;28;20261;-14
2022/09/18 09:21:07;;;;;;;2.90;0.75;;;;;;;;;;5084780;28;20295;-14
2022/09/18 09:23:42;;;;;;;2.78;0.60;;;;;;;;;;5092514;28;20331;-14
2022/09/18 09:26:10;;;;;;;2.65;0.75;;;;;;;;;;5093028;28;20287;-14
2022/09/18 09:28:39;;;;;;;2.83;0.80;;;;;;;;;;5092860;28;20286;-14
2022/09/18 09:31:06;;;;;;;3.67;0.80;;;;;;;;;;5092516;28;20236;-14
2022/09/18 09:33:34;;;;;;;3.38;0.98;;;;;;;;;;5092414;28;20386;-14
2022/09/18 09:36:03;;;;;;;3.50;0.80;;;;;;;;;;5092993;28;20290;-14
2022/09/18 09:38:35;;;;;;;4.07;1.00;;;;;;;;;;5092776;28;20220;-14
2022/09/18 09:41:07;;;;;;;3.72;0.95;;;;;;;;;;5092817;28;20221;-14
2022/09/18 09:43:35;;;;;;;2.97;0.95;;;;;;;;;;5092698;28;20236;-14
2022/09/18 09:46:03;;;;;;;6.63;1.17;;;;;;;;;;5092504;28;20241;-14
2022/09/18 09:48:32;;;;;;;2.22;0.80;;;;;;;;;;5092760;28;20866;-14
2022/09/18 09:51:02;;;;;;;4.70;1.13;;;;;;;;;;5092729;28;20228;-13
2022/09/18 09:53:29;;;;;;;3.40;0.70;;;;;;;;;;5092257;28;20232;-14
2022/09/18 09:55:59;;;;;;;4.25;0.98;;;;;;;;;;5092589;28;20637;-14
2022/09/18 09:58:32;;;;;;;2.03;0.70;;;;;;;;;;5092151;28;20263;-14
2022/09/18 10:01:01;;;;;;;3.15;0.93;;;;;;;;;;5084940;28;20229;-14
2022/09/18 10:03:31;;;;;;;5.13;1.02;;;;;;;;;;5074582;28;20225;-14
2022/09/18 10:05:59;;;;;;;2.60;0.70;;;;;;;;;;5092342;28;21101;-14
2022/09/18 10:08:27;;;;;;;2.97;0.70;;;;;;;;;;5092234;28;20283;-14
2022/09/18 10:10:55;;;;;;;1.40;0.50;;;;;;;;;;5092492;28;20229;-14
2022/09/18 10:13:24;;;;;;;2.40;0.73;;;;;;;;;;5092269;28;20294;-14
2022/09/18 10:15:53;;;;;;;2.70;0.77;;;;;;;;;;5085596;28;21003;-14
2022/09/18 10:18:21;;;;;;;3.25;0.60;;;;;;;;;;5072130;28;20764;-14
2022/09/18 10:20:49;;;;;;;1.27;0.60;;;;;;;;;;5081468;28;20225;-14
2022/09/18 10:23:20;;;;;;;3.75;0.85;;;;;;;;;;5091207;28;21650;-14
2022/09/18 10:25:49;;;;;;;3.30;0.60;;;;;;;;;;5091519;28;20276;-14
2022/09/18 10:28:16;;;;;;;2.45;0.90;;;;;;;;;;5092096;28;20721;-14
2022/09/18 10:30:58;;;;;;;2.50;0.57;;;;;;;;;;5086760;28;20229;-14
2022/09/18 10:33:35;;;;;;;3.33;0.80;;;;;;;;;;5071894;28;20229;-14
2022/09/18 10:36:16;;;;;;;3.30;0.60;;;;;;;;;;5072297;28;20224;-14
2022/09/18 10:38:44;;;;;;;1.73;0.60;;;;;;;;;;5071700;28;20233;-14
2022/09/18 10:41:24;;;;;;;3.35;0.60;;;;;;;;;;5071801;28;20287;-14
2022/09/18 10:43:53;;;;;;;4.07;0.70;;;;;;;;;;5071679;28;20275;-14
2022/09/18 10:46:24;;;;;;;2.28;0.70;;;;;;;;;;5071581;28;20230;-14
2022/09/18 10:48:51;;;;;;;6.22;0.80;;;;;;;;;;5085149;28;20252;-14
2022/09/18 10:51:20;;;;;;;2.53;0.85;;;;;;;;;;5108301;28;20274;-13
2022/09/18 10:53:59;;;;;;;1.85;0.40;;;;;;;;;;5071582;28;20233;-14
2022/09/18 10:56:27;;;;;;;4.30;0.80;;;;;;;;;;5071439;28;20221;-13
2022/09/18 10:58:54;;;;;;;2.28;0.60;;;;;;;;;;5077767;28;20236;-14
2022/09/18 11:01:21;;;;;;;3.72;1.17;;;;;;;;;;5081062;28;20705;-14
2022/09/18 11:03:58;;;;;;;2.58;0.70;;;;;;;;;;5071300;28;20225;-14
2022/09/18 11:06:25;;;;;;;2.70;0.52;;;;;;;;;;5071540;28;20240;-14
2022/09/18 11:08:55;;;;;;;3.13;0.80;;;;;;;;;;5071490;28;20308;-14
2022/09/18 11:11:24;;;;;;;3.47;0.50;;;;;;;;;;5089829;28;20326;-14
2022/09/18 11:13:54;;;;;;;1.67;0.70;;;;;;;;;;5091073;28;20279;-14
2022/09/18 11:16:22;;;;;;;2.22;0.73;;;;;;;;;;5080750;28;20898;-14
2022/09/18 11:19:00;;;;;;;1.83;0.55;;;;;;;;;;5071406;28;20249;-14
2022/09/18 11:21:33;;;;;;;5.22;0.88;;;;;;;;;;5089331;28;20283;-14
2022/09/18 11:24:04;;;;;;;2.40;0.57;;;;;;;;;;5091495;28;20278;-14
2022/09/18 11:26:31;;;;;;;2.00;0.60;;;;;;;;;;5091735;28;20237;-15
2022/09/18 11:28:59;;;;;;;3.22;0.90;;;;;;;;;;5091171;28;20229;-14
2022/09/18 11:31:27;;;;;;;4.00;0.63;;;;;;;;;;5090755;28;21167;-13
2022/09/18 11:33:55;;;;;;;2.92;0.63;;;;;;;;;;5093444;28;21081;-14
2022/09/18 11:36:24;;;;;;;2.78;0.65;;;;;;;;;;5095303;28;20761;-14
2022/09/18 11:38:52;;;;;;;2.88;0.77;;;;;;;;;;5094294;28;20302;-14
2022/09/18 11:41:21;;;;;;;0.90;0.50;;;;;;;;;;5094784;28;21079;-14
2022/09/18 11:43:55;;;;;;;3.63;0.68;;;;;;;;;;5094344;28;20319;-13
2022/09/18 11:46:24;;;;;;;2.38;0.80;;;;;;;;;;5094872;28;20243;-13
2022/09/18 11:48:52;;;;;;;3.45;0.57;;;;;;;;;;5094694;28;20232;-14
2022/09/18 11:51:25;;;;;;;1.90;0.55;;;;;;;;;;5094740;28;20221;-14
2022/09/18 11:54:00;;;;;;;3.10;0.60;;;;;;;;;;5093797;28;20233;-14
2022/09/18 11:56:30;;;;;;;3.15;0.60;;;;;;;;;;5094607;28;20283;-14
2022/09/18 11:58:59;;;;;;;2.05;0.50;;;;;;;;;;5094578;28;20224;-13
2022/09/18 12:01:27;;;;;;;2.33;0.80;;;;;;;;;;5082866;28;20237;-14
2022/09/18 12:03:56;;;;;;;2.53;0.50;;;;;;;;;;5073386;28;20229;-14
2022/09/18 12:06:25;;;;;;;3.33;0.77;;;;;;;;;;5092874;28;20312;-14
2022/09/18 12:08:55;;;;;;;2.45;0.40;;;;;;;;;;5094246;28;20260;-13
2022/09/18 12:11:24;;;;;;;3.03;0.50;;;;;;;;;;5094267;28;20695;-13
2022/09/18 12:13:58;;;;;;;2.15;0.38;;;;;;;;;;5094282;28;20228;-14
2022/09/18 12:16:28;;;;;;;1.50;0.50;;;;;;;;;;5099507;28;20309;-14
2022/09/18 12:18:58;;;;;;;1.58;0.50;;;;;;;;;;5104653;28;20225;-14
2022/09/18 12:21:28;;;;;;;1.52;0.43;;;;;;;;;;5093631;28;20457;-14
2022/09/18 12:23:57;;;;;;;2.38;0.68;;;;;;;;;;5094162;28;20282;-13
2022/09/18 12:26:25;;;;;;;4.18;0.80;;;;;;;;;;5093580;28;20781;-14
2022/09/18 12:29:04;;;;;;;2.90;0.55;;;;;;;;;;5093794;28;20224;-13
2022/09/18 12:31:32;;;;;;;2.47;0.40;;;;;;;;;;5093882;28;20256;-13
2022/09/18 12:34:01;;;;;;;2.28;0.43;;;;;;;;;;5093664;28;20228;-14
2022/09/18 12:36:36;;;;;;;1.05;0.50;;;;;;;;;;5094062;28;20282;-14
2022/09/18 12:39:10;;;;;;;1.00;0.32;;;;;;;;;;5093310;28;20228;-14
2022/09/18 12:41:44;;;;;;;2.67;0.50;;;;;;;;;;5093576;28;20315;-13
2022/09/18 12:44:19;;;;;;;2.33;0.57;;;;;;;;;;5093369;28;20302;-14
2022/09/18 12:46:50;;;;;;;2.78;0.60;;;;;;;;;;5092110;28;20236;-14
2022/09/18 12:49:24;;;;;;;1.80;0.60;;;;;;;;;;5093855;28;20832;-14
2022/09/18 12:51:52;;;;;;;0.70;0.50;;;;;;;;;;5093888;28;20651;-14
2022/09/18 12:54:31;;;;;;;2.35;0.40;;;;;;;;;;5092804;28;20229;-14
2022/09/18 12:57:02;;;;;;;2.05;0.55;;;;;;;;;;5093786;28;20508;-14
2022/09/18 12:59:33;;;;;;;4.07;0.50;;;;;;;;;;5092846;28;20241;-14
2022/09/18 13:02:01;;;;;;;1.58;0.57;;;;;;;;;;5080597;28;20788;-14
2022/09/18 13:04:30;;;;;;;1.27;0.30;;;;;;;;;;5113972;28;20228;-14
2022/09/18 13:06:58;;;;;;;0.90;0.40;;;;;;;;;;5113685;28;20235;-14
2022/09/18 13:09:27;;;;;;;1.42;0.30;;;;;;;;;;5113725;28;20228;-13
2022/09/18 13:11:58;;;;;;;1.77;0.40;;;;;;;;;;5098055;28;20298;-14
2022/09/18 13:14:26;;;;;;;0.95;0.30;;;;;;;;;;5093484;28;20279;-15
2022/09/18 13:16:54;;;;;;;1.83;0.30;;;;;;;;;;5101665;28;20227;-14
2022/09/18 13:19:23;;;;;;;1.55;0.55;;;;;;;;;;5113125;28;20216;-14
2022/09/18 13:21:51;;;;;;;2.40;0.30;;;;;;;;;;5106148;28;20248;-14
2022/09/18 13:24:19;;;;;;;2.05;0.40;;;;;;;;;;5093256;28;20229;-14
2022/09/18 13:26:47;;;;;;;1.63;0.38;;;;;;;;;;5093492;28;20240;-15
2022/09/18 13:29:32;;;;;;;0.82;0.30;;;;;;;;;;5093136;28;20231;-14
2022/09/18 13:32:01;;;;;;;1.33;0.30;;;;;;;;;;5079419;28;20287;-14
2022/09/18 13:34:28;;;;;;;0.95;0.40;;;;;;;;;;5092956;28;20221;-14
2022/09/18 13:36:56;;;;;;;1.05;0.30;;;;;;;;;;5092822;28;20225;-15
2022/09/18 13:39:23;;;;;;;2.05;0.40;;;;;;;;;;5091818;28;20275;-15
2022/09/18 13:41:52;;;;;;;1.90;0.60;;;;;;;;;;5092879;28;20746;-14
2022/09/18 13:44:20;;;;;;;1.85;0.40;;;;;;;;;;5091623;28;20642;-14
2022/09/18 13:46:47;;;;;;;1.48;0.40;;;;;;;;;;5092776;28;20307;-14
2022/09/18 13:49:21;;;;;;;1.60;0.50;;;;;;;;;;5092731;28;20322;-14
2022/09/18 13:51:48;;;;;;;2.65;0.68;;;;;;;;;;5092823;28;21019;-14
2022/09/18 13:54:17;;;;;;;2.55;0.50;;;;;;;;;;5092160;28;20251;-14
2022/09/18 13:57:03;;;;;;;2.35;0.55;;;;;;;;;;5091983;28;20229;-15
2022/09/18 13:59:43;;;;;;;2.58;0.40;;;;;;;;;;5092560;28;20270;-14
2022/09/18 14:02:21;;;;;;;3.00;0.77;;;;;;;;;;5074762;28;20241;-14
2022/09/18 14:05:07;;;;;;;1.67;0.60;;;;;;;;;;5072357;28;20229;-14
2022/09/18 14:07:52;;;;;;;3.20;0.50;;;;;;;;;;5092525;28;20232;-14
2022/09/18 14:10:37;;;;;;;3.15;0.68;;;;;;;;;;5091998;28;20282;-13
2022/09/18 14:13:07;;;;;;;0.98;0.50;;;;;;;;;;5092381;28;20278;-14
2022/09/18 14:15:34;;;;;;;1.83;0.45;;;;;;;;;;5095249;28;20327;-13
2022/09/18 14:18:06;;;;;;;2.10;0.52;;;;;;;;;;5096092;28;20692;-13
2022/09/18 14:20:33;;;;;;;1.02;0.45;;;;;;;;;;5092915;28;20282;-14
2022/09/18 14:23:15;;;;;;;2.15;0.50;;;;;;;;;;5092041;28;20249;-14
2022/09/18 14:25:45;;;;;;;2.60;0.70;;;;;;;;;;5091382;28;20224;-14
2022/09/18 14:28:13;;;;;;;2.90;1.05;;;;;;;;;;5091552;28;20290;-14
2022/09/18 14:30:40;;;;;;;1.60;0.55;;;;;;;;;;5092032;28;20240;-14
2022/09/18 14:33:16;;;;;;;1.13;0.50;;;;;;;;;;5092293;28;20282;-14
2022/09/18 14:35:47;;;;;;;2.58;0.80;;;;;;;;;;5091188;28;20220;-14
2022/09/18 14:38:15;;;;;;;1.38;0.52;;;;;;;;;;5091476;28;20229;-14
2022/09/18 14:40:42;;;;;;;2.38;0.70;;;;;;;;;;5091843;28;20278;-13
2022/09/18 14:43:15;;;;;;;1.88;0.65;;;;;;;;;;5091868;28;20704;-14
2022/09/18 14:45:43;;;;;;;1.83;0.80;;;;;;;;;;5091093;28;20298;-14
2022/09/18 14:48:19;;;;;;;4.20;0.90;;;;;;;;;;5091534;28;20229;-14
2022/09/18 14:50:56;;;;;;;2.33;0.80;;;;;;;;;;5091206;28;20232;-14
2022/09/18 14:53:24;;;;;;;2.33;0.60;;;;;;;;;;5091963;28;20228;-14
2022/09/18 14:55:52;;;;;;;2.08;0.73;;;;;;;;;;5091974;28;20256;-14